This is the latest recevied weather packets stored in our database for station/object VE3MNX. If no packets are shown the sender has not sent any weather packets the latest 1 day(s).
| Time | Temp. | Humidity | Pressure | Rain* | Wind** | Luminosity | Snow |
|---|---|---|---|---|---|---|---|
| 1777991897 | 14.44° C | 90% | 1003 hPa | 0 mm | 4.47 m/s, 244° | - | - |
| 1777990997 | 16.67° C | 83% | 1002.7 hPa | 0 mm | 3.13 m/s, 283° | - | - |
| 1777990097 | 16.11° C | 83% | 1003 hPa | 0 mm | 3.13 m/s, 280° | - | - |
| 1777989198 | 17.22° C | 80% | 1002.4 hPa | 0 mm | 2.68 m/s, 282° | - | - |
| 1777988298 | 16.11° C | 86% | 1001.7 hPa | 0 mm | 3.58 m/s, 226° | - | - |
| 1777987398 | 16.11° C | 83% | 1002 hPa | 0 mm | 3.58 m/s, 288° | - | - |
| 1777986497 | 16.67° C | 85% | 1002.4 hPa | 0 mm | 2.68 m/s, 285° | - | - |
| 1777985599 | 16.11° C | 86% | 1002.4 hPa | 0 mm | 3.13 m/s, 284° | - | - |
| 1777984697 | 15.56° C | 86% | 1002.4 hPa | 0 mm | 3.58 m/s, 290° | - | - |
| 1777983798 | 15° C | 88% | 1002.4 hPa | 0 mm | 2.68 m/s, 281° | - | - |
| 1777982896 | 13.89° C | 90% | 1002 hPa | 0 mm | 3.58 m/s, 276° | - | - |
| 1777981997 | 13.33° C | 92% | 1002 hPa | 0 mm | 4.02 m/s, 247° | - | - |
| 1777981096 | 13.33° C | 92% | 1001.7 hPa | 0 mm | 3.13 m/s, 263° | - | - |
| 1777980197 | 11.67° C | 96% | 1001.4 hPa | 0 mm | 3.13 m/s, 253° | - | - |
| 1777979297 | 12.22° C | 96% | 1001.4 hPa | 0 mm | 3.13 m/s, 265° | - | - |
| 1777978397 | 12.78° C | 95% | 1001 hPa | 0 mm | 3.13 m/s, 262° | - | - |
| 1777977497 | 13.33° C | 93% | 1000.7 hPa | 0 mm | 4.02 m/s, 265° | - | - |
| 1777976598 | 12.78° C | 93% | 1000.3 hPa | 0 mm | 4.02 m/s, 265° | - | - |
| 1777975696 | 13.89° C | 91% | 1000 hPa | 0 mm | 3.13 m/s, 252° | - | - |
| 1777974798 | 12.78° C | 92% | 1000 hPa | 0 mm | 3.58 m/s, 238° | - | - |
| 1777973896 | 14.44° C | 88% | 1000 hPa | 0 mm | 3.58 m/s, 257° | - | - |
| 1777972998 | 13.33° C | 90% | 1000.3 hPa | 0 mm | 4.47 m/s, 277° | - | - |
| 1777972096 | 13.33° C | 91% | 1000 hPa | 0 mm | 4.47 m/s, 255° | - | - |
| 1777971196 | 12.22° C | 92% | 1000 hPa | 0 mm | 5.36 m/s, 259° | - | - |
| 1777970297 | 13.33° C | 91% | 999.3 hPa | 0 mm | 2.68 m/s, 275° | - | - |
* Rain latest hour (hover to see other rain measurements)
** Current wind speed in m/s (hover to see current wind gust speed)